Time;durP1;ratioP1;P1;durP2;ratioP2;P2;SDS_P1;SDS_P2;PMS_P1;PMS_P2;Temp;Humidity;BMP_temperature;BMP_pressure;BME280_temperature;BME280_humidity;BME280_pressure;Samples;Min_cycle;Max_cycle;Signal;HPM_P1;HPM_P2
2021/11/13 00:00:25;;;;;;;290.27;58.17;;;;;;;1.40;100.00;95808.88;1022550;28;20189;-68
2021/11/13 00:00:56;;;;;;;399.46;65.08;;;;;;;1.35;100.00;95795.78;1020224;29;20867;-67
2021/11/13 00:01:26;;;;;;;391.30;65.05;;;;;;;1.36;100.00;95802.53;1022986;29;20031;-68
2021/11/13 00:01:57;;;;;;;402.48;71.60;;;;;;;1.30;100.00;95805.91;1022765;28;20034;-67
2021/11/13 00:02:27;;;;;;;414.45;73.80;;;;;;;1.29;100.00;95806.91;1026994;28;20031;-67
2021/11/13 00:02:58;;;;;;;224.93;48.38;;;;;;;1.32;100.00;95809.09;1026344;28;20042;-67
2021/11/13 00:03:28;;;;;;;401.42;66.28;;;;;;;1.27;100.00;95801.16;1028442;28;20461;-66
2021/11/13 00:03:59;;;;;;;356.00;63.30;;;;;;;1.21;100.00;95800.19;1026766;28;20026;-67
2021/11/13 00:04:29;;;;;;;429.30;69.68;;;;;;;1.30;100.00;95811.09;1027078;28;20023;-65
2021/11/13 00:05:00;;;;;;;381.20;63.20;;;;;;;1.32;100.00;95801.34;1030698;28;20023;-67
2021/11/13 00:05:30;;;;;;;383.20;63.92;;;;;;;1.32;100.00;95801.34;1019108;29;20028;-67
2021/11/13 00:06:01;;;;;;;279.80;56.83;;;;;;;1.33;100.00;95793.38;1018901;29;20369;-68
2021/11/13 00:06:31;;;;;;;459.60;78.90;;;;;;;1.33;100.00;95801.13;1021018;28;20019;-67
2021/11/13 00:07:02;;;;;;;401.65;69.55;;;;;;;1.37;100.00;95809.28;1026249;28;20034;-67
2021/11/13 00:07:32;;;;;;;267.05;54.13;;;;;;;1.39;100.00;95804.72;1022634;28;20672;-67
2021/11/13 00:08:03;;;;;;;445.17;71.30;;;;;;;1.38;100.00;95808.31;1018720;28;20023;-68
2021/11/13 00:08:33;;;;;;;294.90;52.00;;;;;;;1.38;100.00;95813.47;1024805;28;20311;-67
2021/11/13 00:09:04;;;;;;;313.65;58.72;;;;;;;1.38;100.00;95810.88;1030163;28;20077;-67
2021/11/13 00:09:34;;;;;;;283.50;55.95;;;;;;;1.37;100.00;95811.84;1030871;28;20573;-68
2021/11/13 00:10:06;;;;;;;359.73;65.90;;;;;;;1.31;100.00;95803.16;1024283;28;20106;-67
2021/11/13 00:10:39;;;;;;;291.60;53.92;;;;;;;1.39;100.00;95817.63;1023017;28;20045;-67
2021/11/13 00:11:11;;;;;;;367.84;60.42;;;;;;;1.32;100.00;95811.69;1026553;28;20034;-67
2021/11/13 00:11:41;;;;;;;362.80;61.52;;;;;;;1.37;100.00;95815.22;1026710;28;20086;-68
2021/11/13 00:12:12;;;;;;;379.38;62.78;;;;;;;1.37;100.00;95815.22;1026943;28;20046;-67
2021/11/13 00:12:42;;;;;;;290.52;54.58;;;;;;;1.32;100.00;95811.69;1019025;28;20028;-68
2021/11/13 00:13:13;;;;;;;343.90;60.70;;;;;;;1.38;100.00;95805.72;1028794;28;20031;-67
2021/11/13 00:13:43;;;;;;;445.65;78.13;;;;;;;1.33;100.00;95811.47;1031560;28;20049;-68
2021/11/13 00:14:17;;;;;;;359.40;60.60;;;;;;;1.32;100.00;95806.53;1027336;28;20042;-68
2021/11/13 00:14:47;;;;;;;413.30;69.70;;;;;;;1.34;100.00;95805.31;1025561;28;20566;-67
2021/11/13 00:15:21;;;;;;;427.75;72.95;;;;;;;1.28;100.00;95800.16;1025095;28;20026;-68
2021/11/13 00:15:51;;;;;;;466.30;80.60;;;;;;;1.32;100.00;95806.53;1022527;29;20034;-67
2021/11/13 00:16:22;;;;;;;436.73;74.78;;;;;;;1.30;100.00;95804.13;1019035;29;20020;-68
2021/11/13 00:16:54;;;;;;;407.88;70.63;;;;;;;1.31;100.00;95810.09;1022177;29;20082;-67
2021/11/13 00:17:25;;;;;;;344.14;66.22;;;;;;;1.28;100.00;95807.94;1022003;28;20038;-68
2021/11/13 00:17:55;;;;;;;411.27;71.03;;;;;;;1.23;100.00;95793.00;1026263;28;20357;-67
2021/11/13 00:18:26;;;;;;;349.70;54.40;;;;;;;1.31;100.00;95802.34;1034834;28;20068;-67
2021/11/13 00:18:56;;;;;;;446.08;71.25;;;;;;;1.27;100.00;95799.34;1030885;28;20026;-67
2021/11/13 00:19:27;;;;;;;459.40;71.68;;;;;;;1.28;100.00;95805.34;1026831;28;20089;-68
2021/11/13 00:19:58;;;;;;;348.58;63.08;;;;;;;1.24;100.00;95786.03;1031717;28;20026;-67
2021/11/13 00:20:29;;;;;;;437.42;70.18;;;;;;;1.25;100.00;95788.44;1030828;28;20041;-64
2021/11/13 00:20:59;;;;;;;410.52;69.53;;;;;;;1.33;100.00;95800.34;1026800;28;20027;-67
2021/11/13 00:21:29;;;;;;;427.20;66.63;;;;;;;1.28;100.00;95797.59;1022677;28;20031;-68
2021/11/13 00:22:00;;;;;;;403.70;68.80;;;;;;;1.27;100.00;95790.81;1023028;28;20023;-67
2021/11/13 00:22:31;;;;;;;442.80;72.90;;;;;;;1.27;100.00;95801.16;1029616;28;20090;-67
2021/11/13 00:23:01;;;;;;;440.80;71.85;;;;;;;1.29;100.00;95796.59;1031153;28;20034;-67
2021/11/13 00:23:32;;;;;;;419.95;71.07;;;;;;;1.29;100.00;95799.97;1037796;28;20508;-67
2021/11/13 00:24:03;;;;;;;362.26;66.88;;;;;;;1.33;100.00;95800.34;1030441;28;20033;-68
2021/11/13 00:24:33;;;;;;;384.48;67.93;;;;;;;1.27;100.00;95794.19;1030801;28;20108;-68
2021/11/13 00:25:04;;;;;;;398.05;65.53;;;;;;;1.27;100.00;95796.78;1030221;28;20489;-67
2021/11/13 00:25:35;;;;;;;323.13;56.53;;;;;;;1.26;100.00;95792.59;1026487;28;20107;-68
2021/11/13 00:26:05;;;;;;;372.80;66.35;;;;;;;1.28;100.00;95797.59;1018981;29;20537;-67
2021/11/13 00:26:36;;;;;;;414.23;73.70;;;;;;;1.25;100.00;95793.63;1014777;29;20087;-67
2021/11/13 00:27:07;;;;;;;398.38;70.75;;;;;;;1.26;100.00;95787.44;1019028;28;20034;-67
2021/11/13 00:27:37;;;;;;;311.50;60.80;;;;;;;1.24;100.00;95794.63;1022146;28;20047;-66
2021/11/13 00:28:08;;;;;;;390.83;68.68;;;;;;;1.28;100.00;95792.41;1030468;28;20093;-67
2021/11/13 00:28:38;;;;;;;337.45;58.88;;;;;;;1.23;100.00;95794.81;1026919;28;20074;-67
2021/11/13 00:29:09;;;;;;;334.58;64.65;;;;;;;1.20;100.00;95782.28;1030701;28;20026;-66
2021/11/13 00:29:39;;;;;;;347.60;60.70;;;;;;;1.19;100.00;95786.66;1026696;28;20074;-67
2021/11/13 00:30:10;;;;;;;370.45;63.53;;;;;;;1.26;100.00;95791.81;1022280;28;20031;-68
2021/11/13 00:30:42;;;;;;;383.12;63.32;;;;;;;1.25;100.00;95800.56;1024135;28;20148;-68
2021/11/13 00:31:12;;;;;;;379.22;71.78;;;;;;;1.24;100.00;95793.78;1025793;28;20685;-67
2021/11/13 00:31:43;;;;;;;355.85;62.83;;;;;;;1.23;100.00;95795.59;1022436;28;20114;-67
2021/11/13 00:32:13;;;;;;;400.63;72.20;;;;;;;1.26;100.00;95796.97;1022439;29;20044;-68
2021/11/13 00:32:44;;;;;;;367.02;69.13;;;;;;;1.23;100.00;95789.63;1022926;28;20047;-68
2021/11/13 00:33:14;;;;;;;407.48;74.65;;;;;;;1.26;100.00;95800.34;1022756;28;20035;-67
2021/11/13 00:33:45;;;;;;;404.48;72.57;;;;;;;1.30;100.00;95803.34;1026846;28;20093;-68
2021/11/13 00:34:15;;;;;;;370.90;65.80;;;;;;;1.10;100.00;95767.19;1022452;29;20038;-68
2021/11/13 00:34:46;;;;;;;380.35;65.28;;;;;;;1.27;100.00;95799.34;1027248;28;20018;-68
2021/11/13 00:35:16;;;;;;;272.85;59.03;;;;;;;1.29;100.00;95796.59;1018801;29;20023;-67
2021/11/13 00:35:47;;;;;;;269.33;56.50;;;;;;;1.24;100.00;95788.63;1021602;29;20095;-68
2021/11/13 00:36:17;;;;;;;332.65;61.78;;;;;;;1.32;100.00;95801.34;1022528;28;20042;-68
2021/11/13 00:36:47;;;;;;;323.95;61.60;;;;;;;1.30;100.00;95801.53;1026921;28;20043;-68
2021/11/13 00:37:18;;;;;;;251.57;54.55;;;;;;;1.28;100.00;95808.72;1026324;28;20038;-69
2021/11/13 00:37:48;;;;;;;370.73;69.85;;;;;;;1.28;100.00;95797.59;1026037;28;20050;-65
2021/11/13 00:38:20;;;;;;;365.30;72.40;;;;;;;1.27;100.00;95803.72;1026707;28;20034;-67
2021/11/13 00:38:51;;;;;;;461.02;83.14;;;;;;;1.16;100.00;95787.84;1026603;28;20149;-68
2021/11/13 00:39:21;;;;;;;464.27;80.05;;;;;;;1.25;100.00;95808.31;1020403;29;20036;-67
2021/11/13 00:39:52;;;;;;;475.58;80.72;;;;;;;1.22;100.00;95795.81;1022464;29;20034;-67
2021/11/13 00:40:22;;;;;;;455.40;75.15;;;;;;;1.22;100.00;95800.97;1022185;28;20027;-68
2021/11/13 00:40:52;;;;;;;465.02;81.78;;;;;;;1.23;100.00;95802.56;1025700;28;20031;-67
2021/11/13 00:41:23;;;;;;;415.33;71.78;;;;;;;1.21;100.00;95804.53;1026686;28;20035;-67
2021/11/13 00:41:53;;;;;;;425.15;77.53;;;;;;;1.15;100.00;95796.59;1018634;28;20526;-68
2021/11/13 00:42:24;;;;;;;442.10;76.38;;;;;;;1.19;100.00;95802.16;1027035;28;20418;-67
2021/11/13 00:42:54;;;;;;;311.20;63.63;;;;;;;1.17;100.00;95797.22;1027084;28;20049;-67
2021/11/13 00:43:27;;;;;;;335.73;66.70;;;;;;;1.20;100.00;95800.38;1026011;28;20034;-66
2021/11/13 00:43:58;;;;;;;375.96;72.00;;;;;;;1.18;100.00;95806.53;1025546;28;20042;-66
2021/11/13 00:44:28;;;;;;;337.12;66.80;;;;;;;1.15;100.00;95791.44;1023102;28;20380;-66
2021/11/13 00:44:59;;;;;;;299.80;61.13;;;;;;;1.24;100.00;95802.38;1023556;28;20019;-68
2021/11/13 00:45:30;;;;;;;361.67;69.05;;;;;;;1.21;100.00;95792.44;1026535;28;20217;-67
2021/11/13 00:46:00;;;;;;;344.62;70.70;;;;;;;1.16;100.00;95793.03;1026935;28;20085;-68
2021/11/13 00:46:31;;;;;;;374.77;78.43;;;;;;;1.18;100.00;95801.38;1031260;28;20132;-67
2021/11/13 00:47:01;;;;;;;355.85;71.97;;;;;;;1.16;100.00;95808.53;1031098;28;20042;-68
2021/11/13 00:47:32;;;;;;;339.98;65.45;;;;;;;1.19;100.00;95797.00;1026967;28;20035;-67
2021/11/13 00:48:03;;;;;;;363.20;69.20;;;;;;;1.18;100.00;95795.41;1024042;28;20139;-67
2021/11/13 00:48:33;;;;;;;317.63;64.95;;;;;;;1.22;100.00;95800.97;1022933;29;20058;-68
2021/11/13 00:49:05;;;;;;;298.77;65.10;;;;;;;1.22;100.00;95800.97;1023682;28;20086;-68
2021/11/13 00:49:35;;;;;;;427.90;80.12;;;;;;;1.20;100.00;95802.97;1027282;28;20125;-67
2021/11/13 00:50:06;;;;;;;552.30;96.30;;;;;;;1.17;100.00;95793.81;1031564;28;20065;-67
2021/11/13 00:50:37;;;;;;;421.24;78.10;;;;;;;1.14;100.00;95799.38;1031183;28;20394;-67
2021/11/13 00:51:07;;;;;;;444.10;81.20;;;;;;;1.11;100.00;95794.63;1031351;28;20029;-67
2021/11/13 00:51:38;;;;;;;404.23;65.07;;;;;;;1.14;100.00;95800.19;1031321;28;20030;-68
2021/11/13 00:52:08;;;;;;;564.72;93.85;;;;;;;1.09;100.00;95809.53;1025077;28;20442;-66
2021/11/13 00:52:40;;;;;;;523.72;88.15;;;;;;;1.03;100.00;95793.03;1022942;28;20399;-65
2021/11/13 00:53:10;;;;;;;521.04;90.20;;;;;;;1.10;100.00;95806.75;1023256;28;20059;-67
2021/11/13 00:53:41;;;;;;;559.70;83.63;;;;;;;1.11;100.00;95810.94;1026991;28;20023;-67
2021/11/13 00:54:12;;;;;;;398.40;71.45;;;;;;;1.12;100.00;95812.50;1027354;28;21605;-67
2021/11/13 00:54:42;;;;;;;355.83;69.28;;;;;;;1.12;100.00;95804.75;1020692;29;20028;-67
2021/11/13 00:55:19;;;;;;;345.88;67.20;;;;;;;1.09;100.00;95807.75;1022855;28;20030;-67
2021/11/13 00:55:49;;;;;;;454.04;78.44;;;;;;;1.08;100.00;95801.00;1022499;28;20514;-68
2021/11/13 00:56:20;;;;;;;417.92;73.40;;;;;;;0.98;100.00;95790.28;1022157;28;20035;-67
2021/11/13 00:56:50;;;;;;;267.70;57.08;;;;;;;1.07;100.00;95801.19;1022153;29;20038;-67
2021/11/13 00:57:21;;;;;;;356.05;68.47;;;;;;;1.10;100.00;95809.31;1023049;28;20813;-67
2021/11/13 00:57:51;;;;;;;422.90;78.05;;;;;;;1.09;100.00;95807.75;1024745;28;20054;-67
2021/11/13 00:58:22;;;;;;;457.60;85.93;;;;;;;1.03;100.00;95798.22;1027127;28;20026;-68
2021/11/13 00:58:52;;;;;;;455.58;78.03;;;;;;;1.05;100.00;95801.41;1027009;28;20398;-67
2021/11/13 00:59:23;;;;;;;407.05;76.13;;;;;;;1.10;100.00;95809.31;1022002;28;20031;-68
2021/11/13 00:59:53;;;;;;;475.83;79.75;;;;;;;1.06;100.00;95786.69;1026138;28;20605;-68
2021/11/13 01:00:24;;;;;;;399.73;70.97;;;;;;;1.14;100.00;95810.53;1023272;28;20024;-68
2021/11/13 01:00:54;;;;;;;387.63;62.63;;;;;;;1.15;100.00;95809.53;1027095;28;20050;-67
2021/11/13 01:01:25;;;;;;;476.45;81.32;;;;;;;1.16;100.00;95818.06;1031395;28;20033;-67
2021/11/13 01:01:55;;;;;;;499.00;82.00;;;;;;;1.11;100.00;95794.63;1031102;28;20052;-68
2021/11/13 01:02:26;;;;;;;543.85;87.68;;;;;;;1.17;100.00;95811.91;1030839;28;20030;-67
2021/11/13 01:02:56;;;;;;;477.58;79.20;;;;;;;1.17;100.00;95814.47;1019886;29;20035;-67
2021/11/13 01:03:26;;;;;;;514.50;85.20;;;;;;;1.17;100.00;95812.72;1019055;29;20035;-65
2021/11/13 01:03:57;;;;;;;535.88;86.30;;;;;;;1.17;100.00;95814.47;1023176;29;20066;-67
2021/11/13 01:04:28;;;;;;;401.36;71.50;;;;;;;1.13;100.00;95808.94;1024412;28;20023;-65
2021/11/13 01:04:58;;;;;;;408.13;74.40;;;;;;;1.20;100.00;95808.13;1027076;28;20022;-67
2021/11/13 01:05:29;;;;;;;257.45;58.83;;;;;;;1.22;100.00;95811.31;1023343;29;20383;-66
2021/11/13 01:06:00;;;;;;;516.05;86.63;;;;;;;1.16;100.00;95803.34;1023091;29;20031;-68
2021/11/13 01:06:30;;;;;;;421.38;78.68;;;;;;;1.22;100.00;95806.16;1023413;28;20151;-67
2021/11/13 01:07:01;;;;;;;563.70;91.30;;;;;;;1.18;100.00;95811.72;1026726;28;20049;-68
2021/11/13 01:07:31;;;;;;;442.13;75.32;;;;;;;1.21;100.00;95804.53;1022946;29;20052;-67
2021/11/13 01:08:02;;;;;;;402.55;71.70;;;;;;;1.17;100.00;95794.63;1021964;29;20482;-67
2021/11/13 01:08:33;;;;;;;413.77;76.50;;;;;;;1.26;100.00;95812.50;1021580;29;20522;-67
2021/11/13 01:09:03;;;;;;;466.92;69.55;;;;;;;1.24;100.00;95793.78;1020590;29;20043;-67
2021/11/13 01:09:34;;;;;;;379.88;60.75;;;;;;;1.28;100.00;95797.59;1023187;29;20031;-67
2021/11/13 01:10:05;;;;;;;440.75;75.85;;;;;;;1.33;100.00;95803.72;1027114;28;20023;-67
2021/11/13 01:10:35;;;;;;;284.40;57.10;;;;;;;1.32;100.00;95802.13;1027145;28;20031;-67
2021/11/13 01:11:06;;;;;;;269.08;55.33;;;;;;;1.30;100.00;95790.41;1027457;28;20502;-67
2021/11/13 01:11:37;;;;;;;419.58;66.38;;;;;;;1.35;100.00;95804.31;1026814;28;20056;-67
2021/11/13 01:12:08;;;;;;;385.30;67.57;;;;;;;1.38;100.00;95806.50;1023519;29;20023;-67
2021/11/13 01:12:38;;;;;;;371.90;65.13;;;;;;;1.38;100.00;95805.72;1022954;29;20023;-68
2021/11/13 01:13:08;;;;;;;362.35;68.97;;;;;;;1.37;100.00;95804.09;1022869;28;20058;-65
2021/11/13 01:13:39;;;;;;;416.30;75.63;;;;;;;1.31;100.00;95795.38;1023287;29;20416;-67
2021/11/13 01:14:09;;;;;;;333.00;68.30;;;;;;;1.28;100.00;95800.16;1027029;28;20034;-67
2021/11/13 01:14:40;;;;;;;353.33;66.88;;;;;;;1.25;100.00;95798.78;1023261;28;20035;-67
2021/11/13 01:15:11;;;;;;;317.15;65.38;;;;;;;1.26;100.00;95791.81;1029200;28;20070;-64
2021/11/13 01:15:45;;;;;;;282.42;58.34;;;;;;;1.29;100.00;95802.53;1028426;28;20510;-68
2021/11/13 01:16:15;;;;;;;302.33;59.80;;;;;;;1.26;100.00;95800.34;1027609;28;20039;-67
2021/11/13 01:16:46;;;;;;;294.45;59.03;;;;;;;1.26;100.00;95794.41;1022929;29;20042;-67
2021/11/13 01:17:17;;;;;;;316.00;61.67;;;;;;;1.21;100.00;95794.19;1023068;29;20078;-67
2021/11/13 01:17:47;;;;;;;205.48;50.90;;;;;;;1.24;100.00;95797.19;1030489;28;20038;-67
2021/11/13 01:18:18;;;;;;;355.13;68.68;;;;;;;1.26;100.00;95796.97;1030969;28;20548;-67
2021/11/13 01:18:48;;;;;;;189.98;50.35;;;;;;;1.28;100.00;95808.72;1027109;28;20023;-64
2021/11/13 01:19:19;;;;;;;220.73;53.15;;;;;;;1.30;100.00;95793.00;1027078;28;20065;-67
2021/11/13 01:19:49;;;;;;;297.73;66.85;;;;;;;1.32;100.00;95798.75;1022318;28;20066;-66
2021/11/13 01:20:20;;;;;;;242.25;56.88;;;;;;;1.34;100.00;95789.81;1023147;28;20031;-67
2021/11/13 01:20:50;;;;;;;241.68;57.60;;;;;;;1.31;100.00;95799.78;1027166;28;20038;-67
2021/11/13 01:21:21;;;;;;;292.35;60.58;;;;;;;1.24;100.00;95788.63;1031074;28;20464;-67
2021/11/13 01:21:55;;;;;;;235.52;54.92;;;;;;;1.26;100.00;95789.22;1029367;28;20287;-67
2021/11/13 01:22:25;;;;;;;241.88;56.74;;;;;;;1.25;100.00;95795.41;1031557;28;20033;-67
2021/11/13 01:22:56;;;;;;;219.25;51.65;;;;;;;1.21;100.00;95789.03;1031077;28;20026;-67
2021/11/13 01:23:26;;;;;;;286.75;59.13;;;;;;;1.21;100.00;95786.44;1031688;28;20029;-68
2021/11/13 01:23:57;;;;;;;232.98;54.28;;;;;;;1.17;100.00;95784.28;1031363;28;20080;-67
2021/11/13 01:24:30;;;;;;;180.14;50.20;;;;;;;1.27;100.00;95788.22;1031380;28;20042;-68
2021/11/13 01:25:00;;;;;;;260.55;57.22;;;;;;;1.25;100.00;95783.28;1025069;28;20026;-68
2021/11/13 01:25:31;;;;;;;226.38;51.10;;;;;;;1.27;100.00;95783.06;1023032;29;20039;-67
2021/11/13 01:26:01;;;;;;;266.73;60.33;;;;;;;1.25;100.00;95785.06;1015520;29;20476;-66
2021/11/13 01:26:33;;;;;;;243.93;57.45;;;;;;;1.24;100.00;95781.69;1024780;28;20027;-68
2021/11/13 01:27:03;;;;;;;192.72;50.50;;;;;;;1.16;100.00;95777.50;1027215;28;20564;-66
2021/11/13 01:27:34;;;;;;;255.90;57.97;;;;;;;1.20;100.00;95784.88;1023374;28;20059;-68
2021/11/13 01:28:04;;;;;;;185.30;50.92;;;;;;;1.17;100.00;95781.72;1026212;28;20039;-67
2021/11/13 01:28:35;;;;;;;255.45;54.40;;;;;;;1.21;100.00;95783.84;1021961;28;20078;-68
2021/11/13 01:29:05;;;;;;;163.32;44.35;;;;;;;1.21;100.00;95786.44;1019044;29;20111;-68
2021/11/13 01:29:36;;;;;;;213.10;51.20;;;;;;;1.17;100.00;95784.28;1019132;29;20031;-68
2021/11/13 01:30:07;;;;;;;219.82;52.42;;;;;;;1.14;100.00;95779.53;1017340;28;20031;-68
2021/11/13 01:30:37;;;;;;;217.64;51.30;;;;;;;1.13;100.00;95783.09;1026183;28;20462;-68
2021/11/13 01:31:08;;;;;;;214.50;51.63;;;;;;;1.06;100.00;95771.97;1023088;29;20070;-66
2021/11/13 01:31:38;;;;;;;278.48;58.85;;;;;;;1.10;100.00;95770.56;1023451;28;20145;-68
2021/11/13 01:32:09;;;;;;;188.25;46.58;;;;;;;1.17;100.00;95778.31;1023593;28;20114;-67
2021/11/13 01:32:39;;;;;;;243.85;52.42;;;;;;;1.13;100.00;95782.28;1023239;28;20491;-68
2021/11/13 01:33:10;;;;;;;239.95;55.35;;;;;;;1.14;100.00;95779.53;1026977;28;20070;-67
2021/11/13 01:33:41;;;;;;;268.15;54.58;;;;;;;1.11;100.00;95784.31;1029577;28;20026;-67
2021/11/13 01:34:11;;;;;;;231.78;54.00;;;;;;;1.02;100.00;95775.97;1035996;28;20025;-67
2021/11/13 01:34:42;;;;;;;274.35;53.97;;;;;;;0.99;100.00;95776.34;1031344;28;20022;-68
2021/11/13 01:35:13;;;;;;;230.05;52.15;;;;;;;0.96;100.00;95770.81;1031050;28;20026;-67
2021/11/13 01:35:43;;;;;;;248.88;51.67;;;;;;;1.05;100.00;95796.22;1032908;28;20046;-67
2021/11/13 01:36:14;;;;;;;242.32;54.90;;;;;;;1.01;100.00;95795.06;1031064;28;20081;-67
2021/11/13 01:36:44;;;;;;;292.75;56.38;;;;;;;0.98;100.00;95795.44;1035050;28;20084;-66
2021/11/13 01:37:15;;;;;;;290.13;59.67;;;;;;;0.99;100.00;95793.66;1033416;28;20119;-67
2021/11/13 01:37:45;;;;;;;335.60;65.07;;;;;;;0.99;100.00;95789.28;1030503;28;20041;-67
2021/11/13 01:38:16;;;;;;;341.23;69.07;;;;;;;1.00;100.00;95798.59;1031172;28;20018;-68
2021/11/13 01:38:46;;;;;;;304.65;65.20;;;;;;;1.00;100.00;95798.59;1035038;28;20509;-68
2021/11/13 01:39:17;;;;;;;263.65;59.45;;;;;;;1.03;100.00;95794.84;1030767;28;20482;-68
2021/11/13 01:39:47;;;;;;;302.42;67.75;;;;;;;1.03;100.00;95790.47;1023321;28;20407;-67
2021/11/13 01:40:19;;;;;;;320.48;67.22;;;;;;;0.96;100.00;95781.94;1023272;29;20026;-68
2021/11/13 01:40:50;;;;;;;336.10;67.68;;;;;;;1.03;100.00;95793.03;1027265;28;20086;-67
2021/11/13 01:41:20;;;;;;;372.70;72.72;;;;;;;0.91;100.00;95787.72;1022673;28;20031;-67
2021/11/13 01:41:58;;;;;;;326.85;68.88;;;;;;;1.00;100.00;95787.47;1018868;29;20510;-68
2021/11/13 01:42:32;;;;;;;384.24;78.38;;;;;;;0.99;100.00;95797.03;1017371;29;20024;-67
2021/11/13 01:43:02;;;;;;;341.74;68.64;;;;;;;0.92;100.00;95781.53;1015021;29;20031;-68
2021/11/13 01:43:35;;;;;;;366.52;72.30;;;;;;;0.92;100.00;95783.31;1019792;29;20023;-68
2021/11/13 01:44:08;;;;;;;324.54;66.98;;;;;;;1.01;100.00;95794.25;1030756;28;20536;-68
2021/11/13 01:44:39;;;;;;;379.46;72.66;;;;;;;0.99;100.00;95791.84;1031158;28;20430;-68
2021/11/13 01:45:09;;;;;;;329.48;65.38;;;;;;;1.00;100.00;95790.84;1027070;28;20026;-68
2021/11/13 01:45:40;;;;;;;310.20;63.83;;;;;;;0.98;100.00;95790.28;1021298;29;20451;-68
2021/11/13 01:46:10;;;;;;;343.17;67.05;;;;;;;0.93;100.00;95783.13;1022245;29;20480;-67
2021/11/13 01:46:41;;;;;;;384.08;74.78;;;;;;;0.93;100.00;95792.66;1019736;29;20606;-67
2021/11/13 01:47:11;;;;;;;307.60;58.85;;;;;;;0.93;100.00;95787.50;1019407;28;20026;-68
2021/11/13 01:47:42;;;;;;;289.90;59.83;;;;;;;0.96;100.00;95789.69;1021944;29;20042;-67
2021/11/13 01:48:12;;;;;;;384.73;75.20;;;;;;;0.94;100.00;95783.94;1022488;28;20185;-67
2021/11/13 01:48:43;;;;;;;303.60;61.13;;;;;;;0.95;100.00;95780.34;1026223;28;20023;-67
2021/11/13 01:49:16;;;;;;;250.46;59.24;;;;;;;1.01;100.00;95787.31;1023015;28;20434;-68
2021/11/13 01:49:46;;;;;;;378.83;73.65;;;;;;;0.99;100.00;95788.50;1026444;28;20277;-67
2021/11/13 01:50:19;;;;;;;302.83;62.83;;;;;;;0.95;100.00;95780.34;1026447;28;20038;-67
2021/11/13 01:50:50;;;;;;;289.44;56.26;;;;;;;1.02;100.00;95786.28;1019788;28;20082;-68
2021/11/13 01:51:23;;;;;;;344.48;57.80;;;;;;;1.04;100.00;95779.16;1019214;28;20023;-67
2021/11/13 01:51:53;;;;;;;301.44;58.36;;;;;;;1.03;100.00;95780.13;1030542;28;20097;-67
2021/11/13 01:52:24;;;;;;;420.95;72.97;;;;;;;1.01;100.00;95776.97;1030191;28;20100;-68
2021/11/13 01:52:54;;;;;;;436.95;76.80;;;;;;;0.99;100.00;95785.91;1030509;28;20018;-68
2021/11/13 01:53:26;;;;;;;415.17;74.30;;;;;;;0.97;100.00;95786.09;1026658;28;20038;-67
2021/11/13 01:54:00;;;;;;;432.20;74.74;;;;;;;0.91;100.00;95769.63;1024705;28;20031;-68
2021/11/13 01:54:35;;;;;;;381.64;71.22;;;;;;;0.97;100.00;95783.50;1026477;28;20019;-68
2021/11/13 01:55:06;;;;;;;269.42;57.88;;;;;;;1.00;100.00;95777.16;1027931;28;20094;-67
2021/11/13 01:55:37;;;;;;;284.65;63.47;;;;;;;1.02;100.00;95778.53;1031534;28;20587;-68
2021/11/13 01:56:07;;;;;;;367.25;72.78;;;;;;;0.94;100.00;95768.44;1034730;28;20110;-68
2021/11/13 01:56:39;;;;;;;328.48;67.20;;;;;;;1.01;100.00;95779.56;1030492;28;20037;-68
2021/11/13 01:57:12;;;;;;;453.46;77.38;;;;;;;0.97;100.00;95777.56;1030563;28;20041;-67
2021/11/13 01:57:46;;;;;;;439.32;77.54;;;;;;;0.98;100.00;95786.91;1025467;28;20062;-68
2021/11/13 01:58:17;;;;;;;419.40;70.26;;;;;;;1.00;100.00;95793.44;1026185;28;20082;-68
2021/11/13 01:58:52;;;;;;;461.15;85.32;;;;;;;0.98;100.00;95784.31;1026659;28;20031;-68
2021/11/13 01:59:24;;;;;;;440.38;77.68;;;;;;;0.98;100.00;95790.28;1020414;29;20514;-68
2021/11/13 01:59:55;;;;;;;305.38;64.00;;;;;;;0.98;100.00;95790.28;1026571;28;20035;-67
2021/11/13 02:00:28;;;;;;;301.95;59.75;;;;;;;1.01;100.00;95792.47;1027432;28;20034;-67
2021/11/13 02:00:58;;;;;;;485.12;82.26;;;;;;;0.99;100.00;95791.84;1030096;28;20469;-68
2021/11/13 02:01:29;;;;;;;377.67;71.65;;;;;;;0.98;100.00;95785.13;1031126;28;20025;-67
2021/11/13 02:01:59;;;;;;;335.05;69.90;;;;;;;0.98;100.00;95782.53;1026816;28;20026;-65
2021/11/13 02:02:30;;;;;;;413.58;80.15;;;;;;;0.99;100.00;95791.06;1022916;28;20035;-68
2021/11/13 02:03:01;;;;;;;393.88;78.03;;;;;;;0.97;100.00;95782.72;1030844;28;20037;-67
2021/11/13 02:03:31;;;;;;;342.83;60.20;;;;;;;1.01;100.00;95789.09;1030792;28;20026;-68
2021/11/13 02:04:02;;;;;;;320.88;62.83;;;;;;;1.00;100.00;95783.09;1037976;28;20025;-68
2021/11/13 02:04:32;;;;;;;317.77;63.90;;;;;;;1.01;100.00;95779.56;1038741;28;20029;-67
2021/11/13 02:05:04;;;;;;;329.30;62.38;;;;;;;1.03;100.00;95781.91;1034836;28;20076;-67
2021/11/13 02:05:35;;;;;;;371.82;66.04;;;;;;;1.03;100.00;95780.13;1034809;28;20030;-68
2021/11/13 02:06:05;;;;;;;362.83;72.63;;;;;;;0.98;100.00;95771.41;1032936;28;20157;-67
2021/11/13 02:06:36;;;;;;;363.63;71.30;;;;;;;1.03;100.00;95771.59;1026540;28;20041;-67
2021/11/13 02:07:06;;;;;;;422.55;73.95;;;;;;;0.99;100.00;95765.25;1022601;28;20043;-67
2021/11/13 02:07:37;;;;;;;366.50;71.03;;;;;;;1.01;100.00;95773.59;1025456;28;20026;-65
2021/11/13 02:08:07;;;;;;;252.05;58.60;;;;;;;1.05;100.00;95775.56;1022143;29;20396;-67
2021/11/13 02:08:39;;;;;;;353.13;73.13;;;;;;;1.08;100.00;95775.16;1026594;28;20037;-67
2021/11/13 02:09:09;;;;;;;418.94;83.62;;;;;;;1.05;100.00;95770.41;1023777;28;20023;-68
2021/11/13 02:09:42;;;;;;;420.00;79.10;;;;;;;1.02;100.00;95762.25;1028427;28;20105;-68
2021/11/13 02:10:13;;;;;;;405.23;74.60;;;;;;;1.01;100.00;95769.22;1022344;29;20031;-68
2021/11/13 02:10:44;;;;;;;443.56;74.94;;;;;;;0.98;100.00;95761.88;1022901;28;20039;-66
2021/11/13 02:11:22;;;;;;;416.66;76.28;;;;;;;1.01;100.00;95764.03;1019043;29;20023;-67
2021/11/13 02:11:54;;;;;;;315.94;59.74;;;;;;;0.96;100.00;95756.09;1023601;28;20116;-68
2021/11/13 02:12:25;;;;;;;347.02;63.44;;;;;;;1.05;100.00;95764.44;1022691;29;20063;-68
2021/11/13 02:12:55;;;;;;;339.73;63.55;;;;;;;0.99;100.00;95766.03;1022249;28;20035;-68
2021/11/13 02:13:26;;;;;;;281.70;60.92;;;;;;;1.01;100.00;95769.22;1018793;29;20024;-67
2021/11/13 02:13:56;;;;;;;345.70;70.65;;;;;;;1.00;100.00;95765.03;1022804;28;20039;-68
2021/11/13 02:14:28;;;;;;;391.38;73.43;;;;;;;0.93;100.00;95766.81;1025869;28;20018;-68
2021/11/13 02:14:58;;;;;;;405.96;80.74;;;;;;;0.96;100.00;95769.00;1022867;28;20058;-68
2021/11/13 02:15:29;;;;;;;398.80;75.88;;;;;;;0.99;100.00;95771.19;1022408;29;20038;-67
2021/11/13 02:15:59;;;;;;;427.52;78.40;;;;;;;0.96;100.00;95779.34;1022326;29;20170;-67
2021/11/13 02:16:30;;;;;;;335.75;69.68;;;;;;;0.92;100.00;95765.25;1025449;28;20033;-68
2021/11/13 02:17:01;;;;;;;375.40;73.20;;;;;;;0.99;100.00;95773.78;1022073;29;20039;-67
2021/11/13 02:17:31;;;;;;;261.58;59.70;;;;;;;1.01;100.00;95776.97;1022115;29;20114;-67
2021/11/13 02:18:02;;;;;;;390.30;77.00;;;;;;;1.01;100.00;95768.44;1017751;29;20031;-67
2021/11/13 02:18:32;;;;;;;336.90;67.90;;;;;;;0.97;100.00;95768.00;1021965;29;20038;-68
2021/11/13 02:19:02;;;;;;;335.60;67.55;;;;;;;1.04;100.00;95773.97;1022783;28;20082;-67
2021/11/13 02:19:33;;;;;;;346.52;68.38;;;;;;;1.06;100.00;95771.97;1022313;28;20042;-68
2021/11/13 02:20:22;;;;;;;289.83;64.70;;;;;;;1.07;100.00;95773.56;1030600;28;20042;-67
2021/11/13 02:20:52;;;;;;;331.58;64.72;;;;;;;1.08;100.00;95775.16;1034355;28;20033;-67